createdAt,value
2018-04-09T00:02:17.717Z,9.17
2018-04-09T00:04:43.859Z,8.43
2018-04-09T00:07:09.982Z,9.53
2018-04-09T00:09:36.063Z,9.00
2018-04-09T00:12:02.121Z,9.57
2018-04-09T00:14:28.913Z,10.53
2018-04-09T00:16:55.586Z,10.93
2018-04-09T00:19:21.646Z,9.10
2018-04-09T00:21:47.732Z,9.00
2018-04-09T00:24:13.802Z,9.00
2018-04-09T00:26:39.922Z,9.87
2018-04-09T00:29:06.031Z,9.90
2018-04-09T00:31:32.093Z,9.27
2018-04-09T00:33:58.249Z,9.83
2018-04-09T00:36:24.321Z,8.83
2018-04-09T00:38:51.405Z,9.40
2018-04-09T00:41:17.478Z,8.53
2018-04-09T00:43:43.542Z,9.20
2018-04-09T00:46:10.493Z,9.17
2018-04-09T00:48:36.570Z,8.73
2018-04-09T00:51:02.642Z,9.17
2018-04-09T00:53:41.048Z,8.87
2018-04-09T00:56:07.834Z,8.43
2018-04-09T00:58:34.015Z,9.47
2018-04-09T01:01:00.826Z,9.77
2018-04-09T01:03:27.269Z,8.13
2018-04-09T01:05:53.357Z,9.70
2018-04-09T01:08:19.462Z,8.50
2018-04-09T01:10:45.558Z,11.60
2018-04-09T01:13:11.629Z,9.33
2018-04-09T01:15:37.917Z,10.87
2018-04-09T01:18:04.320Z,9.77
2018-04-09T01:20:31.334Z,8.70
2018-04-09T01:22:57.600Z,8.97
2018-04-09T01:25:23.830Z,8.80
2018-04-09T01:27:50.146Z,9.23
2018-04-09T01:30:16.428Z,8.90
2018-04-09T01:32:42.710Z,10.27
2018-04-09T01:35:10.744Z,10.10
2018-04-09T01:37:36.805Z,9.20
2018-04-09T01:40:02.913Z,9.57
2018-04-09T01:42:28.960Z,9.60
2018-04-09T01:44:55.185Z,9.77
2018-04-09T01:47:21.486Z,8.10
2018-04-09T01:49:47.726Z,10.03
2018-04-09T01:52:13.969Z,9.07
2018-04-09T01:54:40.201Z,9.33
2018-04-09T01:57:06.558Z,9.77
2018-04-09T01:59:32.851Z,10.00
2018-04-09T02:01:59.098Z,9.33
2018-04-09T02:04:25.565Z,10.33
2018-04-09T02:06:51.800Z,9.90
2018-04-09T02:09:18.037Z,10.37
2018-04-09T02:11:44.297Z,9.60
2018-04-09T02:14:11.290Z,10.17
2018-04-09T02:16:38.283Z,9.50
2018-04-09T02:19:04.571Z,9.07
2018-04-09T02:21:30.868Z,9.77
2018-04-09T02:23:57.118Z,9.73
2018-04-09T02:26:23.389Z,10.40
2018-04-09T02:28:49.605Z,9.97
2018-04-09T02:31:15.845Z,10.43
2018-04-09T02:33:42.118Z,10.47
2018-04-09T02:36:09.163Z,10.53
2018-04-09T02:38:35.415Z,11.60
2018-04-09T02:41:03.262Z,11.30
2018-04-09T02:43:29.559Z,10.13
2018-04-09T02:45:55.929Z,9.97
2018-04-09T02:48:22.173Z,10.10
2018-04-09T02:50:48.438Z,10.33
2018-04-09T02:53:14.742Z,10.00
2018-04-09T02:55:41.023Z,10.40
2018-04-09T02:58:07.318Z,11.10
2018-04-09T03:00:33.718Z,10.13
2018-04-09T03:02:59.978Z,10.37
2018-04-09T03:05:26.251Z,10.70
2018-04-09T03:07:52.511Z,10.07
2018-04-09T03:10:18.746Z,10.57
2018-04-09T03:12:45.002Z,11.13
2018-04-09T03:15:11.269Z,10.57
2018-04-09T03:17:38.317Z,10.50
2018-04-09T03:20:04.563Z,9.90
2018-04-09T03:22:30.801Z,9.80
2018-04-09T03:24:57.076Z,12.13
2018-04-09T03:27:24.077Z,10.60
2018-04-09T03:29:50.322Z,11.53
2018-04-09T03:32:16.590Z,10.70
2018-04-09T03:34:42.858Z,10.90
2018-04-09T03:37:09.115Z,9.93
2018-04-09T03:39:36.128Z,11.03
2018-04-09T03:42:02.406Z,10.67
2018-04-09T03:44:28.670Z,11.83
2018-04-09T03:46:54.935Z,10.70
2018-04-09T03:49:21.946Z,11.87
2018-04-09T03:51:48.225Z,10.67
2018-04-09T03:54:14.465Z,11.77
2018-04-09T03:56:41.710Z,10.73
2018-04-09T03:59:08.041Z,10.37
2018-04-09T04:01:34.321Z,9.90
2018-04-09T04:04:00.589Z,10.10
2018-04-09T04:06:26.841Z,10.70
2018-04-09T04:08:53.074Z,10.90
2018-04-09T04:11:20.102Z,10.60
2018-04-09T04:13:46.205Z,11.23
2018-04-09T04:16:25.739Z,12.27
2018-04-09T04:19:04.406Z,11.33
2018-04-09T04:21:43.097Z,10.83
2018-04-09T04:24:09.357Z,11.13
2018-04-09T04:26:35.609Z,11.57
2018-04-09T04:29:01.905Z,12.43
2018-04-09T04:31:28.160Z,12.70
2018-04-09T04:33:55.220Z,11.07
2018-04-09T04:36:21.621Z,11.67
2018-04-09T04:38:47.943Z,12.20
2018-04-09T04:41:14.225Z,10.60
2018-04-09T04:43:40.493Z,12.10
2018-04-09T04:46:06.942Z,13.30
2018-04-09T04:48:33.213Z,11.10
2018-04-09T04:50:59.501Z,10.90
2018-04-09T04:53:25.761Z,9.93
2018-04-09T04:55:52.010Z,12.10
2018-04-09T04:58:18.287Z,11.67
2018-04-09T05:00:44.548Z,11.60
2018-04-09T05:03:10.818Z,11.90
2018-04-09T05:05:37.055Z,12.67
2018-04-09T05:08:03.365Z,10.80
2018-04-09T05:10:29.624Z,11.37
2018-04-09T05:12:55.900Z,11.63
2018-04-09T05:15:22.171Z,11.37
2018-04-09T05:17:48.449Z,12.00
2018-04-09T05:20:15.946Z,11.20
2018-04-09T05:22:42.189Z,10.00
2018-04-09T05:25:08.451Z,10.77
2018-04-09T05:27:35.445Z,11.50
2018-04-09T05:30:01.719Z,10.70
2018-04-09T05:32:28.022Z,10.80
2018-04-09T05:34:54.294Z,11.27
2018-04-09T05:37:20.774Z,12.70
2018-04-09T05:39:47.035Z,11.27
2018-04-09T05:42:13.285Z,12.30
2018-04-09T05:44:39.547Z,12.67
2018-04-09T05:47:05.800Z,11.13
2018-04-09T05:49:32.042Z,11.20
2018-04-09T05:51:58.281Z,11.83
2018-04-09T05:54:24.509Z,10.70
2018-04-09T05:56:51.289Z,10.80
2018-04-09T05:59:17.510Z,11.10
2018-04-09T06:01:43.766Z,12.10
2018-04-09T06:04:11.931Z,12.97
2018-04-09T06:06:38.150Z,12.27
2018-04-09T06:09:04.393Z,13.47
2018-04-09T06:11:30.614Z,11.80
2018-04-09T06:13:56.895Z,11.70
2018-04-09T06:16:23.125Z,13.20
2018-04-09T06:18:50.074Z,11.30
2018-04-09T06:21:19.208Z,10.80
2018-04-09T06:23:45.267Z,13.37
2018-04-09T06:26:11.509Z,12.23
2018-04-09T06:28:38.518Z,11.73
2018-04-09T06:31:05.521Z,9.90
2018-04-09T06:33:31.746Z,12.23
2018-04-09T06:35:58.009Z,11.17
2018-04-09T06:38:24.290Z,10.83
2018-04-09T06:40:51.279Z,10.47
2018-04-09T06:43:18.971Z,10.03
2018-04-09T06:45:45.208Z,11.30
2018-04-09T06:48:11.490Z,11.00
2018-04-09T06:50:37.749Z,13.00
2018-04-09T06:53:04.743Z,13.57
2018-04-09T06:55:31.185Z,15.30
2018-04-09T06:57:57.463Z,13.97
2018-04-09T07:00:23.748Z,14.73
2018-04-09T07:02:50.730Z,15.60
2018-04-09T07:05:17.025Z,16.60
2018-04-09T07:07:44.039Z,17.60
2018-04-09T07:10:14.358Z,17.17
2018-04-09T07:12:40.421Z,17.67
2018-04-09T07:15:06.485Z,16.73
2018-04-09T07:17:33.281Z,17.47
2018-04-09T07:19:59.344Z,16.93
2018-04-09T07:22:28.799Z,17.37
2018-04-09T07:24:54.920Z,17.80
2018-04-09T07:27:20.954Z,18.33
2018-04-09T07:29:47.026Z,17.07
2018-04-09T07:32:13.082Z,18.83
2018-04-09T07:34:39.138Z,18.40
2018-04-09T07:37:05.170Z,18.83
2018-04-09T07:39:31.220Z,18.27
2018-04-09T07:41:57.822Z,20.00
2018-04-09T07:44:23.915Z,19.50
2018-04-09T07:46:49.894Z,18.90
2018-04-09T07:49:15.921Z,18.40
2018-04-09T07:51:42.251Z,20.13
2018-04-09T07:54:09.257Z,20.60
2018-04-09T07:56:35.506Z,19.20
2018-04-09T07:59:01.742Z,19.00
2018-04-09T08:01:32.347Z,19.43
2018-04-09T08:03:59.938Z,19.20
2018-04-09T08:06:26.012Z,20.10
2018-04-09T08:08:52.857Z,21.00
2018-04-09T08:11:18.873Z,20.33
2018-04-09T08:13:44.917Z,20.30
2018-04-09T08:16:10.941Z,21.03
2018-04-09T08:18:36.975Z,20.90
2018-04-09T08:21:03.037Z,21.00
2018-04-09T08:23:29.974Z,21.50
2018-04-09T08:25:56.228Z,21.27
2018-04-09T08:28:22.472Z,21.70
2018-04-09T08:30:48.706Z,21.90
2018-04-09T08:33:14.942Z,21.97
2018-04-09T08:35:41.213Z,21.77
2018-04-09T08:38:07.479Z,21.47
2018-04-09T08:40:34.497Z,21.10
2018-04-09T08:43:00.754Z,22.47
2018-04-09T08:45:27.753Z,22.70
2018-04-09T08:47:54.793Z,21.23
2018-04-09T08:50:21.033Z,21.47
2018-04-09T08:52:47.281Z,21.60
2018-04-09T08:55:13.545Z,23.10
2018-04-09T08:57:39.789Z,22.50
2018-04-09T09:00:06.037Z,22.03
2018-04-09T09:02:33.023Z,22.50
2018-04-09T09:04:59.253Z,22.80
2018-04-09T09:07:25.510Z,23.87
2018-04-09T09:09:51.768Z,23.73
2018-04-09T09:12:18.813Z,23.77
2018-04-09T09:14:45.109Z,23.50
2018-04-09T09:17:11.417Z,24.20
2018-04-09T09:19:37.650Z,23.67
2018-04-09T09:22:03.952Z,23.93
2018-04-09T09:24:31.747Z,23.50
2018-04-09T09:26:57.993Z,22.40
2018-04-09T09:29:25.781Z,22.80
2018-04-09T09:31:52.026Z,21.67
2018-04-09T09:34:18.341Z,23.37
2018-04-09T09:36:44.624Z,21.53
2018-04-09T09:39:10.878Z,22.97
2018-04-09T09:41:37.920Z,21.50
2018-04-09T09:44:04.145Z,23.13
2018-04-09T09:46:30.388Z,22.70
2018-04-09T09:48:56.680Z,24.67
2018-04-09T09:51:22.933Z,24.90
2018-04-09T09:53:49.932Z,25.07
2018-04-09T09:56:16.189Z,24.13
2018-04-09T09:58:42.445Z,25.27
2018-04-09T10:01:08.698Z,25.60
2018-04-09T10:03:34.980Z,24.90
2018-04-09T10:06:01.218Z,25.50
2018-04-09T10:08:27.503Z,27.43
2018-04-09T10:10:53.785Z,26.80
2018-04-09T10:13:20.062Z,25.73
2018-04-09T10:15:46.276Z,27.30
2018-04-09T10:18:12.517Z,27.77
2018-04-09T10:20:38.778Z,28.90
2018-04-09T10:23:05.039Z,30.63
2018-04-09T10:25:31.277Z,27.90
2018-04-09T10:27:57.670Z,28.33
2018-04-09T10:30:23.989Z,30.60
2018-04-09T10:32:51.822Z,31.23
2018-04-09T10:35:21.729Z,31.67
2018-04-09T10:37:48.022Z,30.40
2018-04-09T10:40:14.263Z,31.43
2018-04-09T10:42:40.515Z,29.43
2018-04-09T10:45:13.762Z,29.93
2018-04-09T10:47:40.039Z,29.03
2018-04-09T10:50:10.319Z,28.97
2018-04-09T10:52:37.349Z,30.30
2018-04-09T10:55:03.605Z,30.30
2018-04-09T10:57:29.851Z,29.83
2018-04-09T10:59:56.113Z,29.00
2018-04-09T11:02:22.345Z,29.10
2018-04-09T11:04:49.429Z,29.23
2018-04-09T11:07:19.638Z,31.27
2018-04-09T11:09:46.659Z,29.00
2018-04-09T11:12:13.673Z,28.70
2018-04-09T11:14:40.697Z,29.83
2018-04-09T11:17:06.961Z,27.10
2018-04-09T11:19:33.978Z,29.40
2018-04-09T11:22:00.253Z,28.63
2018-04-09T11:24:30.732Z,29.47
2018-04-09T11:26:58.211Z,28.80
2018-04-09T11:29:24.587Z,28.43
2018-04-09T11:31:50.850Z,25.83
2018-04-09T11:34:17.132Z,28.17
2018-04-09T11:36:43.437Z,27.73
2018-04-09T11:39:10.464Z,26.60
2018-04-09T11:41:36.732Z,28.20
2018-04-09T11:44:03.017Z,25.27
2018-04-09T11:46:29.296Z,26.50
2018-04-09T11:48:55.556Z,24.60
2018-04-09T11:51:21.807Z,23.73
2018-04-09T11:53:48.083Z,23.70
2018-04-09T11:56:14.370Z,24.60
2018-04-09T11:58:41.369Z,23.87
2018-04-09T12:01:07.634Z,23.27
2018-04-09T12:03:33.967Z,22.37
2018-04-09T12:06:00.192Z,23.93
2018-04-09T12:08:26.448Z,21.17
2018-04-09T12:10:53.439Z,22.80
2018-04-09T12:13:19.748Z,21.30
2018-04-09T12:15:46.060Z,21.13
2018-04-09T12:18:12.346Z,20.97
2018-04-09T12:20:38.634Z,21.73
2018-04-09T12:23:04.875Z,20.50
2018-04-09T12:25:31.164Z,22.33
2018-04-09T12:27:57.422Z,22.53
2018-04-09T12:30:23.695Z,20.00
2018-04-09T12:32:49.956Z,19.47
2018-04-09T12:35:16.987Z,21.17
2018-04-09T12:37:43.268Z,21.33
2018-04-09T12:40:09.503Z,20.00
2018-04-09T12:42:35.779Z,21.80
2018-04-09T12:45:03.001Z,20.20
2018-04-09T12:47:29.261Z,20.77
2018-04-09T12:49:56.259Z,19.87
2018-04-09T12:52:22.507Z,19.43
2018-04-09T12:54:48.695Z,20.80
2018-04-09T12:57:14.955Z,18.83
2018-04-09T12:59:41.966Z,24.23
2018-04-09T13:02:08.244Z,21.77
2018-04-09T13:04:35.244Z,23.10
2018-04-09T13:07:01.491Z,22.30
2018-04-09T13:09:27.748Z,23.20
2018-04-09T13:11:54.025Z,24.00
2018-04-09T13:14:21.035Z,22.40
2018-04-09T13:16:47.303Z,23.67
2018-04-09T13:19:15.160Z,24.67
2018-04-09T13:21:46.267Z,23.90
2018-04-09T13:24:12.527Z,24.80
2018-04-09T13:26:38.800Z,24.27
2018-04-09T13:29:05.051Z,21.60
2018-04-09T13:31:31.327Z,23.07
2018-04-09T13:33:57.568Z,23.40
2018-04-09T13:36:23.843Z,23.47
2018-04-09T13:38:53.262Z,23.37
2018-04-09T13:41:20.260Z,24.90
2018-04-09T13:43:46.494Z,24.50
2018-04-09T13:46:13.488Z,25.00
2018-04-09T13:48:39.744Z,23.30
2018-04-09T13:51:06.103Z,22.43
2018-04-09T13:53:33.204Z,25.10
2018-04-09T13:56:03.004Z,24.90
2018-04-09T13:58:29.083Z,25.20
2018-04-09T14:00:55.141Z,24.30
2018-04-09T14:03:22.015Z,23.57
2018-04-09T14:05:48.803Z,25.30
2018-04-09T14:08:14.867Z,24.27
2018-04-09T14:10:40.923Z,24.80
2018-04-09T14:13:11.788Z,23.63
2018-04-09T14:15:38.622Z,24.60
2018-04-09T14:18:04.740Z,24.67
2018-04-09T14:20:31.012Z,24.10
2018-04-09T14:22:57.113Z,23.43
2018-04-09T14:25:23.194Z,23.97
2018-04-09T14:27:50.079Z,24.50
2018-04-09T14:30:16.146Z,22.27
2018-04-09T14:32:44.244Z,24.87
2018-04-09T14:35:10.343Z,23.60
2018-04-09T14:37:36.471Z,22.97
2018-04-09T14:40:02.548Z,22.07
2018-04-09T14:42:28.668Z,22.30
2018-04-09T14:44:54.727Z,22.20
2018-04-09T14:47:24.619Z,21.97
2018-04-09T14:49:50.773Z,22.53
2018-04-09T14:52:16.829Z,23.70
2018-04-09T14:54:43.109Z,24.60
2018-04-09T14:57:09.515Z,22.10
2018-04-09T14:59:35.765Z,24.67
2018-04-09T15:02:02.068Z,22.70
2018-04-09T15:04:28.333Z,23.80
2018-04-09T15:06:54.588Z,23.90
2018-04-09T15:09:21.669Z,24.57
2018-04-09T15:11:48.037Z,24.10
2018-04-09T15:14:15.041Z,25.70
2018-04-09T15:16:41.319Z,26.20
2018-04-09T15:19:07.955Z,26.67
2018-04-09T15:21:34.219Z,29.00
2018-04-09T15:24:00.467Z,28.57
2018-04-09T15:26:26.744Z,28.00
2018-04-09T15:28:53.080Z,28.57
2018-04-09T15:31:19.378Z,30.63
2018-04-09T15:33:45.611Z,29.47
2018-04-09T15:36:11.909Z,31.40
2018-04-09T15:38:38.167Z,33.33
2018-04-09T15:41:04.419Z,32.47
2018-04-09T15:43:30.636Z,32.23
2018-04-09T15:45:56.872Z,35.40
2018-04-09T15:48:23.131Z,34.10
2018-04-09T15:50:49.469Z,33.87
2018-04-09T15:53:15.691Z,37.93
2018-04-09T15:55:41.975Z,39.87
2018-04-09T15:58:08.994Z,40.33
2018-04-09T16:00:35.959Z,41.80
2018-04-09T16:03:02.259Z,43.87
2018-04-09T16:05:29.259Z,42.30
2018-04-09T16:07:55.504Z,44.40
2018-04-09T16:10:21.724Z,45.57
2018-04-09T16:12:49.593Z,44.47
2018-04-09T16:15:15.860Z,43.37
2018-04-09T16:17:54.442Z,45.87
2018-04-09T16:20:20.691Z,44.93
2018-04-09T16:22:47.713Z,45.77
2018-04-09T16:25:13.957Z,44.27
2018-04-09T16:27:41.004Z,45.97
2018-04-09T16:30:07.292Z,45.00
2018-04-09T16:32:33.556Z,45.37
2018-04-09T16:34:59.835Z,44.90
2018-04-09T16:37:26.110Z,43.80
2018-04-09T16:39:52.348Z,42.90
2018-04-09T16:42:18.616Z,43.97
2018-04-09T16:44:44.858Z,45.47
2018-04-09T16:47:11.868Z,47.13
2018-04-09T16:49:38.151Z,45.23
2018-04-09T16:52:04.439Z,46.20
2018-04-09T16:54:30.733Z,45.07
2018-04-09T16:56:57.760Z,47.40
2018-04-09T16:59:24.023Z,46.77
2018-04-09T17:01:50.299Z,45.70
2018-04-09T17:04:17.288Z,44.47
2018-04-09T17:06:43.546Z,45.27
2018-04-09T17:09:09.800Z,47.50
2018-04-09T17:11:36.079Z,48.20
2018-04-09T17:14:03.111Z,44.67
2018-04-09T17:16:30.135Z,45.80
2018-04-09T17:18:56.399Z,45.07
2018-04-09T17:21:22.651Z,46.80
2018-04-09T17:23:49.175Z,48.00
2018-04-09T17:26:15.440Z,45.83
2018-04-09T17:28:41.692Z,45.43
2018-04-09T17:31:08.063Z,45.10
2018-04-09T17:33:34.731Z,42.53
2018-04-09T17:36:01.069Z,44.73
2018-04-09T17:38:27.339Z,43.50
2018-04-09T17:40:53.632Z,43.00
2018-04-09T17:43:20.604Z,41.87
2018-04-09T17:45:46.928Z,43.17
2018-04-09T17:48:13.942Z,43.30
2018-04-09T17:50:40.195Z,42.60
2018-04-09T17:53:08.015Z,44.90
2018-04-09T17:55:34.276Z,41.97
2018-04-09T17:58:00.539Z,44.37
2018-04-09T18:00:26.890Z,44.30
2018-04-09T18:02:53.211Z,43.40
2018-04-09T18:05:20.280Z,42.90
2018-04-09T18:07:48.546Z,44.43
2018-04-09T18:10:14.611Z,43.60
2018-04-09T18:12:40.700Z,41.83
2018-04-09T18:15:07.681Z,44.40
2018-04-09T18:17:34.317Z,42.90
2018-04-09T18:20:00.389Z,46.70
2018-04-09T18:22:26.533Z,43.13
2018-04-09T18:24:52.935Z,45.80
2018-04-09T18:27:18.988Z,46.57
2018-04-09T18:29:45.106Z,44.17
2018-04-09T18:32:11.235Z,44.30
2018-04-09T18:34:38.088Z,43.83
2018-04-09T18:37:05.399Z,44.63
2018-04-09T18:39:31.458Z,45.53
2018-04-09T18:41:57.524Z,43.60
2018-04-09T18:44:24.328Z,43.80
2018-04-09T18:46:50.391Z,46.03
2018-04-09T18:49:17.195Z,43.60
2018-04-09T18:51:43.245Z,45.93
2018-04-09T18:54:09.308Z,44.83
2018-04-09T18:56:35.544Z,43.10
2018-04-09T18:59:02.592Z,45.13
2018-04-09T19:01:29.631Z,44.07
2018-04-09T19:03:55.739Z,46.30
2018-04-09T19:06:22.551Z,45.00
2018-04-09T19:08:48.631Z,45.83
2018-04-09T19:11:14.692Z,45.20
2018-04-09T19:13:40.822Z,43.57
2018-04-09T19:16:06.905Z,45.67
2018-04-09T19:18:33.192Z,43.43
2018-04-09T19:21:00.183Z,44.67
2018-04-09T19:23:26.500Z,46.30
2018-04-09T19:25:52.768Z,45.03
2018-04-09T19:28:19.028Z,44.80
2018-04-09T19:30:45.328Z,43.70
2018-04-09T19:33:11.767Z,45.07
2018-04-09T19:35:44.884Z,44.83
2018-04-09T19:38:17.860Z,44.03
2018-04-09T19:40:44.231Z,43.07
2018-04-09T19:43:10.759Z,42.40
2018-04-09T19:45:37.769Z,42.60
2018-04-09T19:48:04.040Z,41.17
2018-04-09T19:50:30.336Z,40.57
2018-04-09T19:52:56.672Z,43.13
2018-04-09T19:55:22.964Z,41.80
2018-04-09T19:57:49.232Z,39.20
2018-04-09T20:00:15.507Z,39.17
2018-04-09T20:02:41.801Z,39.23
2018-04-09T20:05:08.068Z,38.80
2018-04-09T20:07:34.350Z,36.93
2018-04-09T20:10:00.632Z,37.90
2018-04-09T20:12:26.908Z,37.30
2018-04-09T20:14:53.176Z,35.80
2018-04-09T20:17:19.371Z,37.73
2018-04-09T20:19:45.611Z,37.10
2018-04-09T20:22:11.906Z,37.20
2018-04-09T20:24:39.457Z,36.57
2018-04-09T20:27:05.925Z,36.67
2018-04-09T20:29:32.171Z,37.63
2018-04-09T20:31:58.419Z,37.33
2018-04-09T20:34:24.620Z,35.63
2018-04-09T20:36:50.935Z,35.20
2018-04-09T20:39:17.954Z,35.43
2018-04-09T20:41:44.180Z,36.10
2018-04-09T20:44:10.440Z,33.37
2018-04-09T20:46:37.123Z,36.20
2018-04-09T20:49:04.124Z,33.73
2018-04-09T20:51:30.623Z,36.00
2018-04-09T20:53:56.876Z,35.90
2018-04-09T20:56:23.123Z,34.23
2018-04-09T20:58:49.451Z,34.57
2018-04-09T21:01:16.472Z,36.37
2018-04-09T21:03:42.736Z,34.70
2018-04-09T21:06:09.024Z,35.17
2018-04-09T21:08:35.259Z,33.90
2018-04-09T21:11:02.258Z,35.20
2018-04-09T21:13:29.244Z,33.60
2018-04-09T21:15:56.239Z,35.10
2018-04-09T21:18:22.743Z,34.13
2018-04-09T21:20:49.328Z,35.17
2018-04-09T21:23:15.580Z,33.80
2018-04-09T21:25:41.844Z,34.10
2018-04-09T21:28:09.612Z,34.70
2018-04-09T21:30:35.704Z,35.10
2018-04-09T21:33:02.495Z,33.77
2018-04-09T21:35:28.559Z,34.40
2018-04-09T21:37:54.617Z,32.97
2018-04-09T21:40:21.375Z,35.80
2018-04-09T21:42:48.135Z,34.53
2018-04-09T21:45:14.212Z,34.23
2018-04-09T21:47:40.279Z,33.43
2018-04-09T21:50:06.426Z,34.47
2018-04-09T21:52:32.660Z,35.40
2018-04-09T21:54:58.896Z,33.70
2018-04-09T21:57:25.134Z,35.73
2018-04-09T21:59:51.351Z,35.73
2018-04-09T22:02:17.607Z,34.93
2018-04-09T22:04:43.819Z,34.00
2018-04-09T22:07:10.120Z,34.30
2018-04-09T22:09:36.388Z,35.80
2018-04-09T22:12:03.358Z,35.67
2018-04-09T22:14:29.715Z,35.20
2018-04-09T22:16:55.950Z,34.53
2018-04-09T22:19:22.199Z,35.17
2018-04-09T22:21:48.519Z,33.27
2018-04-09T22:24:15.467Z,33.80
2018-04-09T22:26:42.515Z,32.40
2018-04-09T22:29:08.831Z,29.20
2018-04-09T22:31:35.049Z,30.07
2018-04-09T22:34:01.275Z,28.50
2018-04-09T22:36:27.528Z,23.20
2018-04-09T22:38:53.860Z,26.20
2018-04-09T22:41:20.127Z,23.00
2018-04-09T22:43:46.368Z,13.47
2018-04-09T22:46:12.631Z,13.77
2018-04-09T22:48:38.884Z,12.97
2018-04-09T22:51:05.943Z,12.30
2018-04-09T22:53:32.176Z,11.57
2018-04-09T22:55:58.487Z,11.97
2018-04-09T22:58:24.771Z,10.57
2018-04-09T23:00:51.029Z,10.40
2018-04-09T23:03:17.296Z,10.77
2018-04-09T23:05:44.409Z,11.30
2018-04-09T23:08:11.416Z,11.20
2018-04-09T23:10:37.667Z,10.70
2018-04-09T23:13:03.972Z,10.20
2018-04-09T23:15:30.249Z,10.80
2018-04-09T23:17:56.484Z,11.70
2018-04-09T23:20:22.751Z,10.90
2018-04-09T23:22:48.996Z,10.70
2018-04-09T23:25:16.000Z,9.93
2018-04-09T23:27:43.008Z,10.47
2018-04-09T23:30:09.268Z,11.00
2018-04-09T23:32:36.321Z,11.03
2018-04-09T23:35:03.144Z,10.73
2018-04-09T23:37:29.213Z,11.30
2018-04-09T23:39:55.501Z,10.57
2018-04-09T23:42:21.803Z,11.60
2018-04-09T23:44:48.928Z,12.37
2018-04-09T23:47:15.010Z,12.37
2018-04-09T23:49:41.821Z,13.43
2018-04-09T23:52:07.884Z,12.63
2018-04-09T23:54:33.935Z,12.80
2018-04-09T23:57:00.011Z,12.30
2018-04-09T23:59:26.076Z,12.40
